createdAt,value
2023-01-09T00:00:59.057Z,61.21
2023-01-09T00:04:01.192Z,60.69
2023-01-09T00:07:03.095Z,61.31
2023-01-09T00:10:05.640Z,60.68
2023-01-09T00:13:07.486Z,62.18
2023-01-09T00:16:09.584Z,62.05
2023-01-09T00:19:11.622Z,59.82
2023-01-09T00:22:13.435Z,61.88
2023-01-09T00:25:15.387Z,60.87
2023-01-09T00:28:17.439Z,61.86
2023-01-09T00:31:19.400Z,60.39
2023-01-09T00:34:21.290Z,62.93
2023-01-09T00:37:23.306Z,60.95
2023-01-09T00:40:25.253Z,59.39
2023-01-09T00:43:28.497Z,61.12
2023-01-09T00:46:31.991Z,61.06
2023-01-09T00:49:34.722Z,60.47
2023-01-09T00:52:37.764Z,60.10
2023-01-09T00:55:39.689Z,58.61
2023-01-09T00:58:41.586Z,59.84
2023-01-09T01:01:43.625Z,58.95
2023-01-09T01:05:04.305Z,60.61
2023-01-09T01:08:15.831Z,61.29
2023-01-09T01:11:17.847Z,61.10
2023-01-09T01:14:19.639Z,61.67
2023-01-09T01:17:21.631Z,62.73
2023-01-09T01:20:23.718Z,60.97
2023-01-09T01:23:26.000Z,61.81
2023-01-09T01:26:27.834Z,61.19
2023-01-09T01:29:29.719Z,61.08
2023-01-09T01:32:31.599Z,61.18
2023-01-09T01:35:33.556Z,61.71
2023-01-09T01:38:35.821Z,61.39
2023-01-09T01:41:37.922Z,61.42
2023-01-09T01:44:58.894Z,61.04
2023-01-09T01:48:03.925Z,60.29
2023-01-09T01:51:05.880Z,59.81
2023-01-09T01:54:09.016Z,60.24
2023-01-09T01:57:10.899Z,60.16
2023-01-09T02:00:13.000Z,61.98
2023-01-09T02:03:18.590Z,58.97
2023-01-09T02:06:20.557Z,59.43
2023-01-09T02:09:23.050Z,59.73
2023-01-09T02:12:26.088Z,58.85
2023-01-09T02:15:28.385Z,59.63
2023-01-09T02:18:35.463Z,60.29
2023-01-09T02:21:49.546Z,61.66
2023-01-09T02:25:03.918Z,59.40
2023-01-09T02:28:22.171Z,58.23
2023-01-09T02:31:30.247Z,58.91
2023-01-09T02:34:32.208Z,56.99
2023-01-09T02:37:34.122Z,57.74
2023-01-09T02:40:39.809Z,59.16
2023-01-09T02:43:41.920Z,57.80
2023-01-09T02:46:43.955Z,58.35
2023-01-09T02:49:50.405Z,59.09
2023-01-09T02:53:11.094Z,59.45
2023-01-09T02:56:22.055Z,57.71
2023-01-09T02:59:28.203Z,56.76
2023-01-09T03:02:39.187Z,60.64
2023-01-09T03:05:42.656Z,58.89
2023-01-09T03:08:46.237Z,58.02
2023-01-09T03:11:50.207Z,58.21
2023-01-09T03:14:53.637Z,57.34
2023-01-09T03:17:55.544Z,57.37
2023-01-09T03:20:57.506Z,58.32
2023-01-09T03:24:00.143Z,60.24
2023-01-09T03:27:02.549Z,58.65
2023-01-09T03:30:04.767Z,58.53
2023-01-09T03:33:06.690Z,57.53
2023-01-09T03:36:08.991Z,58.50
2023-01-09T03:39:10.915Z,58.53
2023-01-09T03:42:12.816Z,55.91
2023-01-09T03:45:14.666Z,56.63
2023-01-09T03:48:16.596Z,57.55
2023-01-09T03:51:18.507Z,56.57
2023-01-09T03:54:20.375Z,57.56
2023-01-09T03:57:24.242Z,56.61
2023-01-09T04:00:26.092Z,56.66
2023-01-09T04:03:28.106Z,56.24
2023-01-09T04:06:30.007Z,57.06
2023-01-09T04:09:31.992Z,55.51
2023-01-09T04:12:33.898Z,55.83
2023-01-09T04:15:35.857Z,57.79
2023-01-09T04:18:37.798Z,57.23
2023-01-09T04:21:39.881Z,55.93
2023-01-09T04:24:41.759Z,57.04
2023-01-09T04:27:43.764Z,57.31
2023-01-09T04:30:45.637Z,57.01
2023-01-09T04:33:47.486Z,58.21
2023-01-09T04:36:49.340Z,56.50
2023-01-09T04:39:52.453Z,58.00
2023-01-09T04:42:54.594Z,58.13
2023-01-09T04:45:56.894Z,58.42
2023-01-09T04:48:59.036Z,58.02
2023-01-09T04:52:00.987Z,58.11
2023-01-09T04:55:02.850Z,56.61
2023-01-09T04:58:04.718Z,58.01
2023-01-09T05:01:06.621Z,59.39
2023-01-09T05:04:08.856Z,60.80
2023-01-09T05:07:10.769Z,59.33
2023-01-09T05:10:12.728Z,58.19
2023-01-09T05:13:14.554Z,58.06
2023-01-09T05:16:16.493Z,60.31
2023-01-09T05:19:18.419Z,62.28
2023-01-09T05:22:20.283Z,60.27
2023-01-09T05:25:22.118Z,60.10
2023-01-09T05:28:24.001Z,60.45
2023-01-09T05:31:26.666Z,59.93
2023-01-09T05:34:28.678Z,59.50
2023-01-09T05:37:30.546Z,57.84
2023-01-09T05:40:40.030Z,60.30
2023-01-09T05:43:42.448Z,59.86
2023-01-09T05:46:44.490Z,56.90
2023-01-09T05:49:46.341Z,57.56
2023-01-09T05:52:48.180Z,56.39
2023-01-09T05:55:50.045Z,58.20
2023-01-09T05:58:51.941Z,57.71
2023-01-09T06:01:54.413Z,56.41
2023-01-09T06:04:56.564Z,57.11
2023-01-09T06:07:58.567Z,59.39
2023-01-09T06:11:00.488Z,59.31
2023-01-09T06:14:02.640Z,57.86
2023-01-09T06:17:04.572Z,57.45
2023-01-09T06:20:06.649Z,60.26
2023-01-09T06:23:08.515Z,57.74
2023-01-09T06:26:10.449Z,57.70
2023-01-09T06:29:12.287Z,56.50
2023-01-09T06:32:14.247Z,56.68
2023-01-09T06:35:20.658Z,59.62
2023-01-09T06:38:22.681Z,61.36
2023-01-09T06:41:24.553Z,55.09
2023-01-09T06:44:26.482Z,54.60
2023-01-09T06:47:28.453Z,57.17
2023-01-09T06:50:30.652Z,54.84
2023-01-09T06:53:32.964Z,52.34
2023-01-09T06:56:35.109Z,51.17
2023-01-09T06:59:37.220Z,49.42
2023-01-09T07:02:39.266Z,50.19
2023-01-09T07:05:42.016Z,48.02
2023-01-09T07:08:43.947Z,52.49
2023-01-09T07:11:45.851Z,51.26
2023-01-09T07:14:47.913Z,53.43
2023-01-09T07:17:53.107Z,51.56
2023-01-09T07:20:55.121Z,54.17
2023-01-09T07:23:57.215Z,54.58
2023-01-09T07:26:59.142Z,57.35
2023-01-09T07:30:01.179Z,56.65
2023-01-09T07:33:04.096Z,54.61
2023-01-09T07:36:06.305Z,55.51
2023-01-09T07:39:09.607Z,55.32
2023-01-09T07:42:11.931Z,56.91
2023-01-09T07:45:14.356Z,56.56
2023-01-09T07:48:16.333Z,55.67
2023-01-09T07:51:18.632Z,56.59
2023-01-09T07:54:20.695Z,57.94
2023-01-09T07:57:22.656Z,56.35
2023-01-09T08:00:26.493Z,56.84
2023-01-09T08:03:30.704Z,57.50
2023-01-09T08:06:32.853Z,54.76
2023-01-09T08:09:34.930Z,55.02
2023-01-09T08:12:42.832Z,56.57
2023-01-09T08:15:47.344Z,55.80
2023-01-09T08:18:49.525Z,56.54
2023-01-09T08:21:51.792Z,59.32
2023-01-09T08:24:54.181Z,60.49
2023-01-09T08:27:56.027Z,57.76
2023-01-09T08:30:58.121Z,58.53
2023-01-09T08:34:00.138Z,58.67
2023-01-09T08:37:02.294Z,60.66
2023-01-09T08:40:04.645Z,62.84
2023-01-09T08:43:25.402Z,63.91
2023-01-09T08:46:45.784Z,62.88
2023-01-09T08:49:48.047Z,63.24
2023-01-09T08:52:50.052Z,64.85
2023-01-09T08:55:52.003Z,62.93
2023-01-09T08:58:54.037Z,63.66
2023-01-09T09:01:55.968Z,63.45
2023-01-09T09:04:59.544Z,63.53
2023-01-09T09:08:02.825Z,61.92
2023-01-09T09:11:05.166Z,61.48
2023-01-09T09:14:27.201Z,62.31
2023-01-09T09:17:29.275Z,64.36
2023-01-09T09:20:32.876Z,65.31
2023-01-09T09:23:35.067Z,63.18
2023-01-09T09:26:37.299Z,65.16
2023-01-09T09:29:39.673Z,67.66
2023-01-09T09:32:41.579Z,67.47
2023-01-09T09:35:43.418Z,65.48
2023-01-09T09:38:45.690Z,62.76
2023-01-09T09:42:07.889Z,62.05
2023-01-09T09:45:15.707Z,67.11
2023-01-09T09:48:20.700Z,65.22
2023-01-09T09:51:41.362Z,67.33
2023-01-09T09:54:43.918Z,65.25
2023-01-09T09:57:46.952Z,69.28
2023-01-09T10:00:51.849Z,69.66
2023-01-09T10:03:54.807Z,65.11
2023-01-09T10:06:58.230Z,66.33
2023-01-09T10:10:01.481Z,67.26
2023-01-09T10:13:23.573Z,70.53
2023-01-09T10:16:44.075Z,74.54
2023-01-09T10:19:52.514Z,68.73
2023-01-09T10:23:09.792Z,67.04
2023-01-09T10:26:12.741Z,71.44
2023-01-09T10:29:23.851Z,71.80
2023-01-09T10:32:29.871Z,68.10
2023-01-09T10:35:48.137Z,71.75
2023-01-09T10:38:51.442Z,68.31
2023-01-09T10:41:53.276Z,69.06
2023-01-09T10:45:21.788Z,69.54
2023-01-09T10:48:23.884Z,66.57
2023-01-09T10:51:28.253Z,70.55
2023-01-09T10:54:30.419Z,69.90
2023-01-09T10:57:36.186Z,70.73
2023-01-09T11:00:38.695Z,70.13
2023-01-09T11:03:41.413Z,73.10
2023-01-09T11:06:50.675Z,74.31
2023-01-09T11:10:00.005Z,74.51
2023-01-09T11:13:12.973Z,70.24
2023-01-09T11:16:14.880Z,73.75
2023-01-09T11:19:17.349Z,69.26
2023-01-09T11:22:20.093Z,68.80
2023-01-09T11:25:23.135Z,68.09
2023-01-09T11:28:28.332Z,67.82
2023-01-09T11:31:30.509Z,72.34
2023-01-09T11:34:33.322Z,74.34
2023-01-09T11:37:35.522Z,72.23
2023-01-09T11:40:39.030Z,69.79
2023-01-09T11:43:40.936Z,72.63
2023-01-09T11:46:44.588Z,68.96
2023-01-09T11:49:46.608Z,70.52
2023-01-09T11:53:07.240Z,72.99
2023-01-09T11:56:09.377Z,72.53
2023-01-09T11:59:12.189Z,72.00
2023-01-09T12:02:31.629Z,71.18
2023-01-09T12:05:40.647Z,70.31
2023-01-09T12:08:51.369Z,68.46
2023-01-09T12:12:05.470Z,70.30
2023-01-09T12:15:16.622Z,69.07
2023-01-09T12:18:30.936Z,67.62
2023-01-09T12:21:52.159Z,70.91
2023-01-09T12:25:07.023Z,72.84
2023-01-09T12:28:16.718Z,70.31
2023-01-09T12:31:36.682Z,69.05
2023-01-09T12:34:39.051Z,70.24
2023-01-09T12:37:41.051Z,66.91
2023-01-09T12:40:54.960Z,66.90
2023-01-09T12:44:19.809Z,68.82
2023-01-09T12:47:43.309Z,68.41
2023-01-09T12:50:53.489Z,67.87
2023-01-09T12:54:05.594Z,66.99
2023-01-09T12:57:10.711Z,65.40
2023-01-09T13:00:21.698Z,66.19
2023-01-09T13:03:27.419Z,64.96
2023-01-09T13:06:30.647Z,65.15
2023-01-09T13:09:32.728Z,65.87
2023-01-09T13:12:36.132Z,67.71
2023-01-09T13:15:38.336Z,69.82
2023-01-09T13:18:44.235Z,71.61
2023-01-09T13:21:46.303Z,72.98
2023-01-09T13:25:06.853Z,68.29
2023-01-09T13:28:13.321Z,69.17
2023-01-09T13:31:32.483Z,72.33
2023-01-09T13:34:35.025Z,72.72
2023-01-09T13:37:37.032Z,75.97
2023-01-09T13:40:38.921Z,74.87
2023-01-09T13:43:54.255Z,71.78
2023-01-09T13:46:57.605Z,70.45
2023-01-09T13:50:11.805Z,68.57
2023-01-09T13:53:20.116Z,67.33
2023-01-09T13:56:24.049Z,72.28
2023-01-09T13:59:26.946Z,72.20
2023-01-09T14:02:41.464Z,72.13
2023-01-09T14:05:43.484Z,70.13
2023-01-09T14:08:45.488Z,69.69
2023-01-09T14:11:47.561Z,70.46
2023-01-09T14:14:49.865Z,71.17
2023-01-09T14:17:58.731Z,73.36
2023-01-09T14:21:01.246Z,72.44
2023-01-09T14:24:06.919Z,72.99
2023-01-09T14:27:29.283Z,79.49
2023-01-09T14:30:34.453Z,80.51
2023-01-09T14:33:36.608Z,80.31
2023-01-09T14:36:38.497Z,75.70
2023-01-09T14:39:40.529Z,70.75
2023-01-09T14:42:42.374Z,72.60
2023-01-09T14:45:44.978Z,76.67
2023-01-09T14:48:57.614Z,80.69
2023-01-09T14:52:01.299Z,80.96
2023-01-09T14:55:04.929Z,81.52
2023-01-09T14:58:19.180Z,79.32
2023-01-09T15:01:23.026Z,78.41
2023-01-09T15:04:31.730Z,81.63
2023-01-09T15:07:40.517Z,81.54
2023-01-09T15:10:43.592Z,75.06
2023-01-09T15:13:49.565Z,74.10
2023-01-09T15:16:51.643Z,73.07
2023-01-09T15:19:53.791Z,73.78
2023-01-09T15:22:55.890Z,78.74
2023-01-09T15:26:00.120Z,79.38
2023-01-09T15:29:10.480Z,81.87
2023-01-09T15:32:32.947Z,81.43
2023-01-09T15:35:34.980Z,77.24
2023-01-09T15:38:37.768Z,74.14
2023-01-09T15:41:58.695Z,76.73
2023-01-09T15:45:01.556Z,77.77
2023-01-09T15:48:22.380Z,80.31
2023-01-09T15:51:24.503Z,79.44
2023-01-09T15:54:30.575Z,77.01
2023-01-09T15:57:34.209Z,80.24
2023-01-09T16:00:39.691Z,79.13
2023-01-09T16:03:41.677Z,77.50
2023-01-09T16:06:48.076Z,80.40
2023-01-09T16:09:52.812Z,80.63
2023-01-09T16:12:55.035Z,80.85
2023-01-09T16:15:57.600Z,81.31
2023-01-09T16:18:59.857Z,81.70
2023-01-09T16:22:03.278Z,79.68
2023-01-09T16:25:38.952Z,79.14
2023-01-09T16:28:43.851Z,79.67
2023-01-09T16:31:46.007Z,80.55
2023-01-09T16:34:51.576Z,79.62
2023-01-09T16:37:53.573Z,79.28
2023-01-09T16:41:18.702Z,79.48
2023-01-09T16:44:20.691Z,81.75
2023-01-09T16:47:22.633Z,78.79
2023-01-09T16:50:25.181Z,79.21
2023-01-09T16:53:27.382Z,78.58
2023-01-09T16:56:29.855Z,76.10
2023-01-09T16:59:31.889Z,72.88
2023-01-09T17:02:34.037Z,75.91
2023-01-09T17:05:36.107Z,72.57
2023-01-09T17:08:38.150Z,75.79
2023-01-09T17:11:40.098Z,74.27
2023-01-09T17:14:42.001Z,73.39
2023-01-09T17:17:43.834Z,76.46
2023-01-09T17:20:46.865Z,75.88
2023-01-09T17:24:09.308Z,74.27
2023-01-09T17:27:29.886Z,74.03
2023-01-09T17:30:32.093Z,70.61
2023-01-09T17:33:34.137Z,70.48
2023-01-09T17:36:36.111Z,72.17
2023-01-09T17:39:38.116Z,73.22
2023-01-09T17:42:39.993Z,77.92
2023-01-09T17:45:42.075Z,77.85
2023-01-09T17:48:44.105Z,73.29
2023-01-09T17:51:46.027Z,73.85
2023-01-09T17:54:47.947Z,75.18
2023-01-09T17:57:49.968Z,79.12
2023-01-09T18:00:51.864Z,80.52
2023-01-09T18:03:53.945Z,78.08
2023-01-09T18:06:55.826Z,77.68
2023-01-09T18:09:57.999Z,77.93
2023-01-09T18:13:00.010Z,78.71
2023-01-09T18:16:02.160Z,77.98
2023-01-09T18:19:04.205Z,78.62
2023-01-09T18:22:06.188Z,79.38
2023-01-09T18:25:08.215Z,81.07
2023-01-09T18:28:10.626Z,78.03
2023-01-09T18:31:13.920Z,77.54
2023-01-09T18:34:15.862Z,76.59
2023-01-09T18:37:17.941Z,79.70
2023-01-09T18:40:19.880Z,78.55
2023-01-09T18:43:21.790Z,76.19
2023-01-09T18:46:30.878Z,75.99
2023-01-09T18:49:32.761Z,77.90
2023-01-09T18:52:36.011Z,79.21
2023-01-09T18:55:38.100Z,77.80
2023-01-09T18:58:40.029Z,76.23
2023-01-09T19:01:43.379Z,75.02
2023-01-09T19:04:45.361Z,74.46
2023-01-09T19:07:47.275Z,78.13
2023-01-09T19:10:52.612Z,79.52
2023-01-09T19:13:54.662Z,79.11
2023-01-09T19:16:59.369Z,75.32
2023-01-09T19:20:01.315Z,73.71
2023-01-09T19:23:03.340Z,72.71
2023-01-09T19:26:06.189Z,74.00
2023-01-09T19:29:08.252Z,77.69
2023-01-09T19:32:10.154Z,77.08
2023-01-09T19:35:12.235Z,78.02
2023-01-09T19:38:14.306Z,76.32
2023-01-09T19:41:19.293Z,77.88
2023-01-09T19:44:21.612Z,78.55
2023-01-09T19:47:23.471Z,74.68
2023-01-09T19:50:25.437Z,75.17
2023-01-09T19:53:27.322Z,76.08
2023-01-09T19:56:30.378Z,76.54
2023-01-09T19:59:33.702Z,75.56
2023-01-09T20:02:37.032Z,79.77
2023-01-09T20:05:38.857Z,78.53
2023-01-09T20:08:41.451Z,77.25
2023-01-09T20:11:44.955Z,78.59
2023-01-09T20:14:46.963Z,78.54
2023-01-09T20:17:48.895Z,80.67
2023-01-09T20:20:51.095Z,82.34
2023-01-09T20:23:54.155Z,82.45
2023-01-09T20:26:56.065Z,83.40
2023-01-09T20:29:57.995Z,83.13
2023-01-09T20:33:00.249Z,85.19
2023-01-09T20:36:02.786Z,85.20
2023-01-09T20:39:05.206Z,84.65
2023-01-09T20:42:07.210Z,84.38
2023-01-09T20:45:09.504Z,84.53
2023-01-09T20:48:11.449Z,83.76
2023-01-09T20:51:13.623Z,84.04
2023-01-09T20:54:16.377Z,82.12
2023-01-09T20:57:18.344Z,83.93
2023-01-09T21:00:20.910Z,86.83
2023-01-09T21:03:22.898Z,85.80
2023-01-09T21:06:25.470Z,85.13
2023-01-09T21:09:29.191Z,86.21
2023-01-09T21:12:37.700Z,87.68
2023-01-09T21:15:39.609Z,86.10
2023-01-09T21:18:41.854Z,86.74
2023-01-09T21:21:43.757Z,87.13
2023-01-09T21:24:48.236Z,87.66
2023-01-09T21:27:51.421Z,84.92
2023-01-09T21:30:54.248Z,83.75
2023-01-09T21:33:56.167Z,84.16
2023-01-09T21:36:58.211Z,85.26
2023-01-09T21:40:00.817Z,84.91
2023-01-09T21:43:21.240Z,83.95
2023-01-09T21:46:41.505Z,85.07
2023-01-09T21:49:43.868Z,84.00
2023-01-09T21:52:45.818Z,84.59
2023-01-09T21:55:47.775Z,85.97
2023-01-09T21:58:49.688Z,84.95
2023-01-09T22:01:51.767Z,86.58
2023-01-09T22:04:59.970Z,83.46
2023-01-09T22:08:01.829Z,87.03
2023-01-09T22:11:04.779Z,85.20
2023-01-09T22:14:06.826Z,84.71
2023-01-09T22:17:08.722Z,85.72
2023-01-09T22:20:10.921Z,85.13
2023-01-09T22:23:12.807Z,86.90
2023-01-09T22:26:15.018Z,84.56
2023-01-09T22:29:17.168Z,83.95
2023-01-09T22:32:19.120Z,85.01
2023-01-09T22:35:20.981Z,87.12
2023-01-09T22:38:22.883Z,88.04
2023-01-09T22:41:25.488Z,84.73
2023-01-09T22:44:27.514Z,84.55
2023-01-09T22:47:29.500Z,82.91
2023-01-09T22:50:31.458Z,81.28
2023-01-09T22:53:33.384Z,83.64
2023-01-09T22:56:35.283Z,81.39
2023-01-09T22:59:37.206Z,81.79
2023-01-09T23:02:39.226Z,82.24
2023-01-09T23:05:41.210Z,81.25
2023-01-09T23:08:43.311Z,80.91
2023-01-09T23:12:03.504Z,80.38
2023-01-09T23:15:05.699Z,78.41
2023-01-09T23:18:07.972Z,82.51
2023-01-09T23:21:10.259Z,77.87
2023-01-09T23:24:12.836Z,79.13
2023-01-09T23:27:14.718Z,80.37
2023-01-09T23:30:16.651Z,78.70
2023-01-09T23:33:20.320Z,76.93
2023-01-09T23:36:25.028Z,72.56
2023-01-09T23:39:26.993Z,76.29
2023-01-09T23:42:47.536Z,77.85
2023-01-09T23:45:49.790Z,80.37
2023-01-09T23:48:51.704Z,80.01
2023-01-09T23:51:53.668Z,82.08
2023-01-09T23:54:56.702Z,82.93
2023-01-09T23:57:58.570Z,82.56
